Smithfield, Pennsylvania
Current Conditions -  °F | °C
As of 4:53 AM on Tuesday 21 Oct 2014 (Local Time) from KMGW Reporting Station
Overcast Overcast  
Wind Chill: 53°   Ceiling: 1800
Heat Index: 53°   Visibility: 10mi
Dew Point: 47°   Wind: 5mph
Humidity: 80%   Direction: 210°SSW
Pressure: 29.88"   Gusts: NA
Location:  39.8°N, 79.81°W
Report Text: KMGW 210853Z AUTO 21004KT 10SM OVC018 12/08 A2988 RMK AO2 SLP115 T01170083 55003 TSNO
Loading
Personal Weather Stations






























Interactive Weather Map
Tropical Storm Tracking
New forecast layout! Learn more

10-Day Weather Forecast

Advertisements
Track Severe Weather on mobile